• Join FlightAware (Why Join?)
  • Login
  • US Flag 
10:29PM EDT


 

Airport Tracker/Info


-or-


 

Live Flight TrackerFlight Track Log ✈ EJA947 ✈ 18-Apr-2013 ✈ KTEB - KPBI

Flight Track Log - Related Links

Times and Time Zones

All times are in EDT time to prevent confusion due to time zone crossing. See the EJA947 flight status page for this flight to view local times or setup timezone preferences in your user account.

Time Position Orientation Groundspeed Altitude Reporting Facility
EDT Latitude Longitude Course Direction KTS MPH feet Rate Location/Type
06:16PM 40.8333 -74.1000 229° Southwest 187 215 1,300  Level New York TRACON
06:17PM 40.8000 -74.1500 229° Southwest 208 239 2,200 1,320 Climbing New York TRACON
06:18PM 40.7667 -74.2167 237° Southwest 221 254 3,900 1,500 Climbing New York TRACON
06:19PM 40.7167 -74.2667 217° Southwest 252 290 5,200 960 Climbing New York TRACON
06:20PM 40.6500 -74.2667 180° South 242 278 5,900 1,860 Climbing New York TRACON
06:21PM 40.6000 -74.3167 217° Southwest 258 297 9,000 2,280 Climbing New York TRACON
06:23PM 40.4322 -74.2856 172° South 312 359 13,800 1,860 Climbing New York Center
06:24PM 40.3614 -74.2111 141° Southeast 348 400 15,400 1,560 Climbing New York Center
06:25PM 40.2561 -74.1786 167° South 357 411 16,900 780 Climbing New York Center
06:26PM 40.1508 -74.2117 193° South 375 432 17,000 900 Climbing New York Center
06:27PM 40.0619 -74.2361 192° South 391 450 18,600 1,500 Climbing Washington Center
06:28PM 39.9750 -74.2783 200° South 391 450 19,800 1,320 Climbing Washington Center
06:29PM 39.8883 -74.3611 216° Southwest 380 437 21,300 1,380 Climbing Washington Center
06:30PM 39.8019 -74.4517 219° Southwest 391 450 22,600 1,380 Climbing Washington Center
06:31PM 39.7236 -74.5528 225° Southwest 404 465 24,100 1,500 Climbing Washington Center
06:32PM 39.6411 -74.6644 226° Southwest 415 478 25,600 1,560 Climbing Washington Center
06:33PM 39.5586 -74.7761 226° Southwest 426 490 27,300 1,380 Climbing Washington Center
06:34PM 39.4719 -74.8872 225° Southwest 433 498 28,400 1,500 Climbing Washington Center
06:35PM 39.3828 -75.0008 225° Southwest 440 506 30,400 2,040 Climbing Washington Center
06:36PM 39.2853 -75.0928 216° Southwest 440 506 32,500 2,040 Climbing Washington Center
06:37PM 39.1708 -75.1606 205° Southwest 440 506 34,500 1,920 Climbing Washington Center
06:38PM 39.0564 -75.2200 202° Southwest 447 514 36,400 1,860 Climbing Washington Center
06:39PM 38.9400 -75.2819 202° Southwest 452 520 38,300 1,740 Climbing Washington Center
06:40PM 38.8233 -75.3411 202° Southwest 457 526 39,900 840 Climbing Washington Center
06:41PM 38.7047 -75.4028 202° Southwest 457 526 40,000  Climbing Washington Center
06:42PM 38.5817 -75.4722 204° Southwest 468 539 40,000  Level Washington Center
06:43PM 38.4547 -75.5414 203° Southwest 482 555 40,000  Level Washington Center
06:44PM 38.3253 -75.6022 200° South 495 570 40,000  Level Washington Center
06:45PM 38.1814 -75.6736 201° Southwest 500 575 40,000  Level Washington Center
06:46PM 38.0522 -75.7419 203° Southwest 506 582 40,000  Level Washington Center
06:47PM 37.9247 -75.8156 204° Southwest 506 582 40,000  Level Washington Center
06:48PM 37.7933 -75.8756 200° South 506 582 40,000  Level Washington Center
06:49PM 37.6617 -75.9486 204° Southwest 511 588 40,000  Level Washington Center
06:50PM 37.5300 -76.0133 201° Southwest 511 588 40,000  Level Washington Center
06:51PM 37.3964 -76.0833 203° Southwest 516 594 40,000  Level Washington Center
06:52PM 37.2625 -76.1503 202° Southwest 516 594 40,000  Level Washington Center
06:53PM 37.1350 -76.2067 199° South 536 617 40,000  Level Washington Center
06:54PM 36.9906 -76.2811 202° Southwest 530 610 40,000  Level Washington Center
06:55PM 36.8547 -76.3500 202° Southwest 525 604 40,000  Level Washington Center
06:56PM 36.7206 -76.4158 201° Southwest 525 604 40,000  Level Washington Center
06:57PM 36.5867 -76.4844 202° Southwest 525 604 40,000  Level Washington Center
06:58PM 36.4547 -76.5500 202° Southwest 520 598 40,000  Level Washington Center
06:59PM 36.3208 -76.6128 201° Southwest 515 593 40,000  Level Washington Center
07:00PM 36.1992 -76.6731 202° Southwest 520 598 40,000  Level Washington Center
07:01PM 36.0650 -76.7381 201° Southwest 520 598 40,000  Level Washington Center
07:02PM 35.9308 -76.8028 201° Southwest 515 593 40,000  Level Washington Center
07:03PM 35.7967 -76.8672 201° Southwest 515 593 40,000  Level Washington Center
07:04PM 35.6603 -76.9292 200° South 515 593 40,000  Level Washington Center
07:05PM 35.5156 -77.0058 203° Southwest 515 593 40,000  Level Washington Center
07:06PM 35.3833 -77.0672 201° Southwest 515 593 40,000  Level Washington Center
07:07PM 35.2469 -77.1333 202° Southwest 515 593 40,000  Level Washington Center
07:08PM 35.1103 -77.1967 201° Southwest 521 600 40,000  Level Washington Center
07:09PM 34.9781 -77.2600 201° Southwest 521 600 40,000  Level Washington Center
07:10PM 34.8689 -77.3108 201° Southwest 521 600 40,000  Level Washington Center
07:11PM 34.7092 -77.3883 202° Southwest 516 594 40,000  Level Washington Center
07:12PM 34.5725 -77.4508 201° Southwest 516 594 40,000  Level Washington Center
07:13PM 34.4342 -77.4983 196° South 521 600 40,000  Level Washington Center
07:15PM 34.2061 -77.5697 195° South 526 605 40,000  Level Jacksonville Center
07:16PM 34.0597 -77.6139 194° South 537 618 40,000  Level Jacksonville Center
07:17PM 33.9200 -77.6622 196° South 532 612 40,000  Level Jacksonville Center
07:18PM 33.7778 -77.7033 194° South 526 605 40,000  Level Jacksonville Center
07:19PM 33.6314 -77.7517 195° South 531 611 40,000  Level Jacksonville Center
07:20PM 33.4772 -77.8031 196° South 536 617 40,000  Level Jacksonville Center
07:21PM 33.3350 -77.8486 195° South 531 611 40,000  Level Jacksonville Center
07:22PM 33.1908 -77.8939 195° South 531 611 40,000  Level Jacksonville Center
07:23PM 33.0464 -77.9392 195° South 531 611 40,000  Level Jacksonville Center
07:24PM 32.9000 -77.9842 194° South 536 617 40,000  Level Jacksonville Center
07:25PM 32.7578 -78.0292 195° South 536 617 40,000  Level Jacksonville Center
07:26PM 32.6114 -78.0739 194° South 547 629 40,000  Level Jacksonville Center
07:27PM 32.4628 -78.1186 194° South 547 629 40,000  Level Jacksonville Center
07:28PM 32.3161 -78.1633 194° South 547 629 40,000  Level Jacksonville Center
07:29PM 32.1717 -78.2075 195° South 547 629 40,000  Level Jacksonville Center
07:30PM 32.0253 -78.2567 196° South 547 629 40,000  Level Jacksonville Center
07:31PM 31.8808 -78.3031 195° South 542 624 40,000  Level Jacksonville Center
07:32PM 31.7367 -78.3517 196° South 548 631 40,000  Level Jacksonville Center
07:33PM 31.5919 -78.3953 194° South 543 625 40,000  Level Jacksonville Center
07:34PM 31.4453 -78.4414 195° South 549 632 40,000  Level Jacksonville Center
07:35PM 31.2969 -78.4922 196° South 549 632 40,000  Level Jacksonville Center
07:36PM 31.1522 -78.5378 195° South 544 626 40,000  Level Jacksonville Center
07:37PM 31.0097 -78.5808 195° South 544 626 40,000  Level Jacksonville Center
07:38PM 30.8611 -78.6264 195° South 544 626 40,000  Level Jacksonville Center
07:39PM 30.6519 -78.6922 195° South 555 639 40,000  Level Miami Center
07:40PM 30.5097 -78.7428 197° South 555 639 40,000  Level Miami Center
07:41PM 30.3611 -78.7931 196° South 544 626 40,000  Level Miami Center
07:42PM 30.2247 -78.8458 198° South 544 626 40,000  Level Miami Center
07:43PM 30.0761 -78.8958 196° South 544 626 40,000  Level Miami Center
07:44PM 29.9314 -78.9481 197° South 544 626 40,000  Level Miami Center
07:45PM 29.7911 -79.0003 198° South 544 626 40,000  Level Miami Center
07:46PM 29.6403 -79.0308 190° South 549 632 40,000  Level Miami Center
07:47PM 29.4878 -79.0564 188° South 549 632 40,000  Level Miami Center
07:48PM 29.3350 -79.0819 188° South 555 639 40,000  Level Miami Center
07:49PM 29.1844 -79.1122 190° South 563 648 40,000  Level Miami Center
07:50PM 29.0297 -79.1397 189° South 563 648 40,000 -1,200 Level Miami Center
07:51PM 28.8603 -79.1672 188° South 563 648 37,700 -2,400 Descending Miami Center
07:52PM 28.7158 -79.1950 190° South 552 635 35,300 -2,400 Descending Miami Center
07:53PM 28.5650 -79.2225 189° South 552 635 32,900 -2,520 Descending Miami Center
07:54PM 28.4081 -79.2500 189° South 560 644 30,300 -2,700 Descending Miami Center
07:55PM 28.2511 -79.2794 189° South 565 650 27,600 -2,700 Descending Miami Center
07:56PM 28.1247 -79.3333 201° Southwest 516 594 25,000 -2,340 Descending Miami Center
07:57PM 28.0047 -79.3989 206° Southwest 498 573 23,000 -2,100 Descending Miami Center
07:58PM 27.8908 -79.4669 208° Southwest 477 549 20,900 -2,100 Descending Miami Center
07:59PM 27.7811 -79.5278 206° Southwest 449 517 18,900 -1,920 Descending Miami Center
08:00PM 27.6692 -79.5883 206° Southwest 444 511 17,100 -1,800 Descending Miami Center
08:01PM 27.5722 -79.6422 206° Southwest 444 511 15,300 -1,800 Descending Miami Center
08:02PM 27.4708 -79.6961 205° Southwest 421 484 13,600 -1,740 Descending Miami Center
08:03PM 27.3758 -79.7475 206° Southwest 365 420 11,900 -1,500 Descending Miami Center
08:04PM 27.3019 -79.7900 207° Southwest 324 373 10,700 -1,200 Descending Miami Center
08:05PM 27.2303 -79.8281 205° Southwest 298 343 9,500 -1,200 Descending Miami Center
08:06PM 27.1669 -79.8614 205° Southwest 288 331 8,300 -780 Descending Miami Center
08:07PM 27.0972 -79.9017 207° Southwest 288 331 8,000 -720 Descending Miami Center
08:08PM 27.0231 -79.9464 208° Southwest 282 325 6,900 -1,200 Descending Miami Center
08:09PM 26.9533 -79.9842 206° Southwest 282 325 5,700 -1,200 Descending Miami Center
08:10PM 26.8939 -80.0361 218° Southwest 282 325 4,500 -900 Descending Miami Center
08:11PM 26.8406 -80.0811 217° Southwest 277 319 4,000 -600 Descending Miami Center
08:12PM 26.8056 -80.1547 242° Southwest 245 282 3,300 -720 Descending Miami Center
08:14PM 26.6832 -80.0956 270° West  Level Estimated
08:21PM 26.6832 -80.0956 110° East  Level Estimated
08:22PM 26.6832 -80.0956 110° East  Level Estimated
08:23PM 26.6832 -80.0956 110° East  Level Estimated
08:24PM 26.6832 -80.0956 110° East  Level Estimated
08:25PM 26.6832 -80.0956 110° East  Level Estimated
08:26PM 26.6832 -80.0956 110° East  Level Estimated
08:27PM 26.6832 -80.0956 110° East  Level Estimated